Time;durP1;ratioP1;P1;durP2;ratioP2;P2;SDS_P1;SDS_P2;PMS_P1;PMS_P2;Temp;Humidity;BMP_temperature;BMP_pressure;BME280_temperature;BME280_humidity;BME280_pressure;Samples;Min_cycle;Max_cycle;Signal;HPM_P1;HPM_P2
2021/04/12 00:00:11;;;;;;;4.57;2.95;;;;;;;;;;5092629;28;20028;-79
2021/04/12 00:02:43;;;;;;;4.25;3.00;;;;;;;;;;5092228;28;20032;-79
2021/04/12 00:05:16;;;;;;;7.10;5.43;;;;;;;;;;5092360;28;20426;-80
2021/04/12 00:08:06;;;;;;;7.50;4.45;;;;;;;;;;5092617;28;20028;-80
2021/04/12 00:10:50;;;;;;;8.80;5.45;;;;;;;;;;5084886;28;20040;-79
2021/04/12 00:13:25;;;;;;;9.25;5.88;;;;;;;;;;5092291;28;20095;-79
2021/04/12 00:15:54;;;;;;;8.93;5.07;;;;;;;;;;5092021;28;20024;-79
2021/04/12 00:18:25;;;;;;;11.45;6.75;;;;;;;;;;5092202;28;20032;-80
2021/04/12 00:20:55;;;;;;;9.13;6.43;;;;;;;;;;5092867;28;20024;-78
2021/04/12 00:23:40;;;;;;;10.43;5.55;;;;;;;;;;5095848;28;20059;-81
2021/04/12 00:26:17;;;;;;;13.25;9.27;;;;;;;;;;5095896;28;20098;-79
2021/04/12 00:28:45;;;;;;;13.80;9.10;;;;;;;;;;5095653;28;20499;-79
2021/04/12 00:31:21;;;;;;;11.45;7.05;;;;;;;;;;5095619;28;20024;-77
2021/04/12 00:33:50;;;;;;;9.50;6.70;;;;;;;;;;5095730;28;20111;-74
2021/04/12 00:36:19;;;;;;;9.98;7.07;;;;;;;;;;5095688;28;20031;-75
2021/04/12 00:39:04;;;;;;;10.32;7.30;;;;;;;;;;5095632;28;20463;-75
2021/04/12 00:41:30;;;;;;;;;;;;;;;;;;5096144;28;20032;-78
2021/04/12 00:44:14;;;;;;;12.57;7.13;;;;;;;;;;5095325;28;19919;-77
2021/04/12 00:46:59;;;;;;;10.57;6.80;;;;;;;;;;5095457;28;20046;-75
2021/04/12 00:49:44;;;;;;;13.25;7.68;;;;;;;;;;5095463;28;20053;-76
2021/04/12 00:52:28;;;;;;;10.20;8.13;;;;;;;;;;5095467;28;20050;-75
2021/04/12 00:54:57;;;;;;;12.77;8.55;;;;;;;;;;5094105;28;20073;-77
2021/04/12 00:57:42;;;;;;;14.57;8.90;;;;;;;;;;5095380;28;20372;-77
2021/04/12 01:00:11;;;;;;;11.73;6.88;;;;;;;;;;5095470;28;20024;-75
2021/04/12 01:02:43;;;;;;;10.10;6.88;;;;;;;;;;5094947;28;20418;-77
2021/04/12 01:05:09;;;;;;;10.30;7.13;;;;;;;;;;5095579;28;20032;-78
2021/04/12 01:07:45;;;;;;;11.20;6.95;;;;;;;;;;5095028;28;20103;-76
2021/04/12 01:10:22;;;;;;;9.07;6.13;;;;;;;;;;5093917;28;20051;-76
2021/04/12 01:13:07;;;;;;;9.13;6.00;;;;;;;;;;5095045;28;20059;-75
2021/04/12 01:15:39;;;;;;;13.77;8.55;;;;;;;;;;5095242;28;20043;-80
2021/04/12 01:18:14;;;;;;;14.70;9.48;;;;;;;;;;5094879;28;20024;-78
2021/04/12 01:20:56;;;;;;;15.93;9.35;;;;;;;;;;5094944;28;20049;-76
2021/04/12 01:23:36;;;;;;;14.75;9.70;;;;;;;;;;5095096;28;20039;-75
2021/04/12 01:26:21;;;;;;;13.68;8.57;;;;;;;;;;5094886;28;20471;-77
2021/04/12 01:28:49;;;;;;;9.00;6.95;;;;;;;;;;5094594;28;20052;-78
2021/04/12 01:31:18;;;;;;;9.88;7.60;;;;;;;;;;5093373;28;20543;-77
2021/04/12 01:33:45;;;;;;;9.23;5.97;;;;;;;;;;5094077;28;20039;-76
2021/04/12 01:36:29;;;;;;;9.25;6.25;;;;;;;;;;5094672;28;20472;-76
2021/04/12 01:39:14;;;;;;;10.60;6.90;;;;;;;;;;5094475;28;20035;-77
2021/04/12 01:41:40;;;;;;;14.25;8.48;;;;;;;;;;5094453;28;20383;-77
2021/04/12 01:44:06;;;;;;;14.82;8.77;;;;;;;;;;5094691;28;20032;-77
2021/04/12 01:46:32;;;;;;;11.20;7.10;;;;;;;;;;5094619;28;20105;-77
2021/04/12 01:49:13;;;;;;;11.25;8.10;;;;;;;;;;5094525;28;20099;-78
2021/04/12 01:51:52;;;;;;;9.65;6.80;;;;;;;;;;5094276;28;20031;-78
2021/04/12 01:54:21;;;;;;;15.95;7.88;;;;;;;;;;5093107;28;20081;-77
2021/04/12 01:57:05;;;;;;;8.93;6.65;;;;;;;;;;5094401;28;20440;-77
2021/04/12 01:59:40;;;;;;;13.48;7.25;;;;;;;;;;5094578;28;20024;-76
2021/04/12 02:02:06;;;;;;;13.60;7.95;;;;;;;;;;5092728;28;20394;-77
2021/04/12 02:04:32;;;;;;;13.80;8.30;;;;;;;;;;5094504;28;20032;-76
2021/04/12 02:07:12;;;;;;;10.60;7.38;;;;;;;;;;5093990;28;20024;-76
2021/04/12 02:09:44;;;;;;;9.70;7.35;;;;;;;;;;5094163;28;20024;-77
2021/04/12 02:12:29;;;;;;;11.10;7.13;;;;;;;;;;5093786;28;20061;-76
2021/04/12 02:14:58;;;;;;;10.10;7.55;;;;;;;;;;5093874;28;20505;-77
2021/04/12 02:17:24;;;;;;;12.10;7.07;;;;;;;;;;5093573;28;20024;-76
2021/04/12 02:20:08;;;;;;;8.77;6.07;;;;;;;;;;5093643;28;20074;-76
2021/04/12 02:22:53;;;;;;;11.05;6.60;;;;;;;;;;5093526;28;20510;-78
2021/04/12 02:25:26;;;;;;;9.38;6.82;;;;;;;;;;5093637;28;20020;-75
2021/04/12 02:28:11;;;;;;;11.75;6.82;;;;;;;;;;5093250;28;20032;-76
2021/04/12 02:30:43;;;;;;;17.13;9.27;;;;;;;;;;5093669;28;20124;-78
2021/04/12 02:33:21;;;;;;;16.95;9.32;;;;;;;;;;5093437;28;20031;-77
2021/04/12 02:36:06;;;;;;;15.82;7.65;;;;;;;;;;5093326;28;20034;-77
2021/04/12 02:38:41;;;;;;;13.80;8.60;;;;;;;;;;5093427;28;20093;-77
2021/04/12 02:41:13;;;;;;;11.82;7.63;;;;;;;;;;5093148;28;20039;-78
2021/04/12 02:43:58;;;;;;;13.52;7.05;;;;;;;;;;5093458;28;20036;-78
2021/04/12 02:46:42;;;;;;;14.85;8.73;;;;;;;;;;5093444;28;20024;-78
2021/04/12 02:49:22;;;;;;;17.17;9.05;;;;;;;;;;5093180;28;20030;-77
2021/04/12 02:52:01;;;;;;;16.17;9.52;;;;;;;;;;5093052;28;20016;-77
2021/04/12 02:54:39;;;;;;;22.00;12.02;;;;;;;;;;5093053;28;20063;-77
2021/04/12 02:57:24;;;;;;;18.73;11.68;;;;;;;;;;5093003;28;20107;-77
2021/04/12 03:00:08;;;;;;;12.77;7.88;;;;;;;;;;5092968;28;20062;-76
2021/04/12 03:02:48;;;;;;;14.13;9.25;;;;;;;;;;5092827;28;20074;-76
2021/04/12 03:05:14;;;;;;;13.43;7.57;;;;;;;;;;5093062;28;20028;-77
2021/04/12 03:07:46;;;;;;;10.35;7.80;;;;;;;;;;5092735;28;20124;-78
2021/04/12 03:10:31;;;;;;;10.50;6.90;;;;;;;;;;5092974;28;20024;-77
2021/04/12 03:12:57;;;;;;;10.55;7.22;;;;;;;;;;5092880;28;20030;-76
2021/04/12 03:15:42;;;;;;;21.63;12.25;;;;;;;;;;5092696;28;20035;-77
2021/04/12 03:18:27;;;;;;;16.75;10.57;;;;;;;;;;5092702;28;20027;-78
2021/04/12 03:20:53;;;;;;;;;;;;;;;;;;5093071;28;20040;-78
2021/04/12 03:23:39;;;;;;;11.90;7.43;;;;;;;;;;5092841;28;20018;-77
2021/04/12 03:26:07;;;;;;;8.63;6.18;;;;;;;;;;5092886;28;20028;-77
2021/04/12 03:28:53;;;;;;;11.02;6.35;;;;;;;;;;5092457;28;20048;-78
2021/04/12 03:31:32;;;;;;;17.67;14.27;;;;;;;;;;5092576;28;20040;-77
2021/04/12 03:34:16;;;;;;;11.30;7.47;;;;;;;;;;5092601;28;20028;-78
2021/04/12 03:37:01;;;;;;;13.00;9.15;;;;;;;;;;5092638;28;20028;-76
2021/04/12 03:39:35;;;;;;;10.43;6.60;;;;;;;;;;5092769;28;20050;-78
2021/04/12 03:42:19;;;;;;;6.73;4.50;;;;;;;;;;5092611;28;20024;-78
2021/04/12 03:45:21;;;;;;;12.18;6.53;;;;;;;;;;5092618;28;20485;-78
2021/04/12 03:47:56;;;;;;;13.90;6.55;;;;;;;;;;5030058;28;20099;-77
2021/04/12 03:50:22;;;;;;;12.70;8.75;;;;;;;;;;5030229;28;20099;-78
2021/04/12 03:53:06;;;;;;;12.52;8.02;;;;;;;;;;5029886;28;20026;-76
2021/04/12 03:55:51;;;;;;;13.25;8.77;;;;;;;;;;5051278;28;20042;-76
2021/04/12 03:58:36;;;;;;;39.53;24.02;;;;;;;;;;5096219;28;20107;-76
2021/04/12 04:01:27;;;;;;;14.77;11.50;;;;;;;;;;5095013;28;20027;-78
2021/04/12 04:04:11;;;;;;;16.38;10.85;;;;;;;;;;5096132;28;20043;-76
2021/04/12 04:06:37;;;;;;;15.30;10.32;;;;;;;;;;5096226;28;20032;-77
2021/04/12 04:09:17;;;;;;;17.13;12.88;;;;;;;;;;5096212;28;20028;-77
2021/04/12 04:11:52;;;;;;;26.77;23.92;;;;;;;;;;5095089;28;20853;-78
2021/04/12 04:14:30;;;;;;;23.95;20.02;;;;;;;;;;5096061;28;20032;-77
2021/04/12 04:16:56;;;;;;;12.30;9.13;;;;;;;;;;5096152;28;20028;-77
2021/04/12 04:19:41;;;;;;;14.70;10.18;;;;;;;;;;5096284;28;20038;-77
2021/04/12 04:22:27;;;;;;;15.07;8.40;;;;;;;;;;5095864;28;20542;-78
2021/04/12 04:25:02;;;;;;;12.35;8.52;;;;;;;;;;5096141;28;20028;-77
2021/04/12 04:27:49;;;;;;;12.98;8.43;;;;;;;;;;5095701;28;20572;-77
2021/04/12 04:30:18;;;;;;;10.40;6.95;;;;;;;;;;5095463;28;20577;-77
2021/04/12 04:33:23;;;;;;;9.15;7.15;;;;;;;;;;5094679;28;20202;-78
2021/04/12 04:35:49;;;;;;;10.55;7.55;;;;;;;;;;5016945;28;20508;-76
2021/04/12 04:38:36;;;;;;;10.73;7.10;;;;;;;;;;5033408;28;20093;-78
2021/04/12 04:41:02;;;;;;;11.27;8.10;;;;;;;;;;5033388;28;20049;-78
2021/04/12 04:43:31;;;;;;;11.40;6.53;;;;;;;;;;5033185;28;20587;-78
2021/04/12 04:46:09;;;;;;;7.63;5.82;;;;;;;;;;5033446;28;20026;-77
2021/04/12 04:48:41;;;;;;;13.60;10.55;;;;;;;;;;5095488;28;20035;-78
2021/04/12 04:51:08;;;;;;;11.25;7.95;;;;;;;;;;5094889;28;20024;-76
2021/04/12 04:53:34;;;;;;;12.02;8.48;;;;;;;;;;5095486;28;20481;-76
2021/04/12 04:56:18;;;;;;;11.57;8.75;;;;;;;;;;5095238;28;20024;-76
2021/04/12 04:58:44;;;;;;;;;;;;;;;;;;5095728;28;20052;-74
2021/04/12 05:01:31;;;;;;;16.40;8.93;;;;;;;;;;5095056;28;19904;-77
2021/04/12 05:04:12;;;;;;;18.05;12.27;;;;;;;;;;5094992;28;20039;-76
2021/04/12 05:06:40;;;;;;;32.15;22.42;;;;;;;;;;5094588;28;20463;-75
2021/04/12 05:09:10;;;;;;;34.38;24.75;;;;;;;;;;5094245;28;20032;-77
2021/04/12 05:11:39;;;;;;;25.30;14.48;;;;;;;;;;5094690;28;20024;-78
2021/04/12 05:14:14;;;;;;;20.60;13.23;;;;;;;;;;5094964;28;20111;-77
2021/04/12 05:16:57;;;;;;;16.58;10.75;;;;;;;;;;5095028;28;20032;-77
2021/04/12 05:19:38;;;;;;;15.35;9.80;;;;;;;;;;5094861;28;20032;-78
2021/04/12 05:22:15;;;;;;;15.15;10.32;;;;;;;;;;5093226;28;20515;-77
2021/04/12 05:24:54;;;;;;;12.30;7.95;;;;;;;;;;5108447;28;20028;-77
2021/04/12 05:27:38;;;;;;;14.32;9.07;;;;;;;;;;5111896;28;20088;-77
2021/04/12 05:30:10;;;;;;;17.63;11.35;;;;;;;;;;5113986;28;20043;-79
2021/04/12 05:32:55;;;;;;;16.40;11.70;;;;;;;;;;5114545;28;20016;-77
2021/04/12 05:35:40;;;;;;;17.45;11.73;;;;;;;;;;5114493;28;20106;-79
2021/04/12 05:38:24;;;;;;;17.67;13.38;;;;;;;;;;5114790;28;20027;-77
2021/04/12 05:50:37;;;;;;;16.38;12.35;;;;;;;;;;5112882;28;20047;-78
2021/04/12 05:53:03;;;;;;;16.88;11.52;;;;;;;;;;5111697;28;20414;-76
2021/04/12 05:55:48;;;;;;;13.50;10.00;;;;;;;;;;5112936;28;20035;-77
2021/04/12 05:58:14;;;;;;;;;;;;;;;;;;5110578;28;20019;-77
2021/04/12 06:00:59;;;;;;;14.13;9.05;;;;;;;;;;5112591;28;19912;-77
2021/04/12 06:03:44;;;;;;;18.85;13.20;;;;;;;;;;5109365;28;20179;-78
2021/04/12 06:06:10;;;;;;;;;;;;;;;;;;5106903;28;20027;-78
2021/04/12 06:08:55;;;;;;;24.95;17.10;;;;;;;;;;5108392;28;19911;-78
2021/04/12 06:11:20;;;;;;;;;;;;;;;;;;5106165;28;20082;-78
2021/04/12 06:13:51;;;;;;;46.05;32.08;;;;;;;;;;5100776;28;19907;-77
2021/04/12 06:16:20;;;;;;;21.67;15.57;;;;;;;;;;5109316;28;20070;-76
2021/04/12 06:19:12;;;;;;;20.95;15.07;;;;;;;;;;5107829;28;20038;-77
2021/04/12 06:21:53;;;;;;;17.15;11.45;;;;;;;;;;5077098;28;20036;-77
2021/04/12 06:24:19;;;;;;;12.43;10.05;;;;;;;;;;5107225;28;20036;-77
2021/04/12 06:27:04;;;;;;;11.90;8.35;;;;;;;;;;5108797;28;20071;-77
2021/04/12 06:29:46;;;;;;;8.90;7.80;;;;;;;;;;5106723;28;20039;-75
2021/04/12 06:32:31;;;;;;;7.93;6.43;;;;;;;;;;5099060;28;20736;-77
2021/04/12 06:35:16;;;;;;;9.95;7.68;;;;;;;;;;5107572;28;20036;-77
2021/04/12 06:37:45;;;;;;;9.57;6.40;;;;;;;;;;5107681;28;20088;-79
2021/04/12 06:40:30;;;;;;;6.88;6.25;;;;;;;;;;5104697;28;20027;-80
2021/04/12 06:42:56;;;;;;;;;;;;;;;;;;5107387;28;20051;-77
2021/04/12 06:45:22;;;;;;;10.32;8.57;;;;;;;;;;5105740;28;19907;-79
2021/04/12 06:47:48;;;;;;;11.10;7.45;;;;;;;;;;5108935;28;20039;-79
2021/04/12 09:10:52;;;;;;;5.13;2.58;;;;;;;;;;5110654;28;20078;-77
2021/04/12 09:13:18;;;;;;;6.72;4.25;;;;;;;;;;5112848;28;20034;-76
2021/04/12 09:16:03;;;;;;;7.78;3.90;;;;;;;;;;5113250;28;20118;-76
2021/04/12 09:18:29;;;;;;;;;;;;;;;;;;5110674;28;20015;-77
2021/04/12 09:21:14;;;;;;;7.28;2.25;;;;;;;;;;5106193;28;20034;-77
2021/04/12 09:23:40;;;;;;;;;;;;;;;;;;5095430;28;20046;-76
2021/04/12 09:26:25;;;;;;;3.38;2.35;;;;;;;;;;5105370;28;19959;-76
2021/04/12 09:28:54;;;;;;;5.88;2.88;;;;;;;;;;5113135;28;20066;-75
2021/04/12 09:31:39;;;;;;;3.30;2.58;;;;;;;;;;5111974;28;20032;-75
2021/04/12 09:34:23;;;;;;;5.88;2.90;;;;;;;;;;5109305;28;20020;-75
2021/04/12 09:36:55;;;;;;;3.75;2.38;;;;;;;;;;5106042;28;20034;-77
2021/04/12 09:39:21;;;;;;;3.60;2.90;;;;;;;;;;5109291;28;20022;-76
2021/04/12 09:41:50;;;;;;;8.75;3.17;;;;;;;;;;5104602;28;20043;-76
2021/04/12 09:44:23;;;;;;;8.88;3.45;;;;;;;;;;5101526;27;20031;-78
2021/04/12 09:47:07;;;;;;;10.50;9.07;;;;;;;;;;5104134;27;20031;-76
2021/04/12 09:49:52;;;;;;;4.95;3.83;;;;;;;;;;5092107;28;20103;-75
2021/04/12 09:52:24;;;;;;;4.90;3.53;;;;;;;;;;5096955;28;20035;-76
2021/04/12 09:54:59;;;;;;;7.15;4.38;;;;;;;;;;5111680;28;20058;-75
2021/04/12 09:57:44;;;;;;;5.55;2.90;;;;;;;;;;5096042;28;20046;-76
2021/04/12 10:00:10;;;;;;;12.82;10.65;;;;;;;;;;5092261;28;20032;-76
2021/04/12 10:02:52;;;;;;;12.55;5.65;;;;;;;;;;5091554;28;20086;-78
2021/04/12 10:05:18;;;;;;;6.10;4.65;;;;;;;;;;5092533;28;20024;-77
2021/04/12 10:08:03;;;;;;;6.53;3.90;;;;;;;;;;5092634;28;20023;-76
2021/04/12 10:10:48;;;;;;;6.47;3.90;;;;;;;;;;5109531;28;20453;-79
2021/04/12 10:13:22;;;;;;;7.47;5.22;;;;;;;;;;5112837;28;20024;-76
2021/04/12 10:16:11;;;;;;;6.68;3.28;;;;;;;;;;5111803;28;20440;-78
2021/04/12 10:18:45;;;;;;;5.53;2.95;;;;;;;;;;5099561;28;20122;-79
2021/04/12 10:21:38;;;;;;;7.70;3.90;;;;;;;;;;5096959;28;20107;-78
2021/04/12 10:24:08;;;;;;;5.10;2.95;;;;;;;;;;5079668;27;20194;-77
2021/04/12 10:26:39;;;;;;;4.85;2.53;;;;;;;;;;5096222;28;20024;-76
2021/04/12 10:29:11;;;;;;;3.85;2.88;;;;;;;;;;5092059;28;20032;-76
2021/04/12 10:31:44;;;;;;;6.53;3.05;;;;;;;;;;5102637;28;20034;-77
2021/04/12 10:34:16;;;;;;;3.83;2.50;;;;;;;;;;5112044;28;20097;-77
2021/04/12 10:36:55;;;;;;;5.10;3.28;;;;;;;;;;5099071;28;20028;-76
2021/04/12 10:39:40;;;;;;;26.70;5.57;;;;;;;;;;5106598;28;20398;-77
2021/04/12 10:42:24;;;;;;;7.72;2.95;;;;;;;;;;5105442;28;20040;-76
2021/04/12 10:45:01;;;;;;;6.75;4.03;;;;;;;;;;5102242;28;20452;-76
2021/04/12 10:47:35;;;;;;;13.50;6.60;;;;;;;;;;5103986;28;20051;-78
2021/04/12 10:50:27;;;;;;;8.68;5.43;;;;;;;;;;5109774;28;20024;-77
2021/04/12 10:53:06;;;;;;;7.28;4.45;;;;;;;;;;5109524;28;20825;-79
2021/04/12 10:55:41;;;;;;;20.88;14.60;;;;;;;;;;5105553;28;20031;-78
2021/04/12 10:58:11;;;;;;;6.20;4.88;;;;;;;;;;5095459;28;20024;-78
2021/04/12 11:00:45;;;;;;;5.97;5.38;;;;;;;;;;5091312;28;20024;-78
2021/04/12 11:03:11;;;;;;;;;;;;;;;;;;5097735;28;20067;-79
2021/04/12 12:24:01;;;;;;;8.68;5.10;;;;;;;;;;5083832;28;20669;-77
2021/04/12 12:26:46;;;;;;;5.18;4.45;;;;;;;;;;5094196;28;20032;-78
2021/04/12 12:29:12;;;;;;;;;;;;;;;;;;5094537;28;20495;-80
2021/04/12 12:31:47;;;;;;;7.45;4.22;;;;;;;;;;5107054;28;19904;-78
2021/04/12 12:34:19;;;;;;;7.65;3.47;;;;;;;;;;5114555;28;20031;-78
2021/04/12 12:36:46;;;;;;;7.13;3.80;;;;;;;;;;5114337;28;20057;-78
2021/04/12 12:39:18;;;;;;;7.25;4.18;;;;;;;;;;5108925;28;20482;-77
2021/04/12 12:41:46;;;;;;;6.05;3.75;;;;;;;;;;5107625;28;20047;-78
2021/04/12 12:44:13;;;;;;;5.18;2.70;;;;;;;;;;5111038;28;20046;-77
2021/04/12 12:46:41;;;;;;;7.30;3.17;;;;;;;;;;5115160;28;20382;-77
2021/04/12 12:49:25;;;;;;;6.18;3.90;;;;;;;;;;5115979;28;20025;-80
2021/04/12 12:51:51;;;;;;;;;;;;;;;;;;5115822;28;20059;-78
2021/04/12 12:54:17;;;;;;;9.90;7.63;;;;;;;;;;5115863;28;19957;-79
2021/04/12 12:56:45;;;;;;;10.52;7.50;;;;;;;;;;5115305;28;20030;-79
2021/04/12 12:59:25;;;;;;;6.15;3.83;;;;;;;;;;5114829;28;20024;-77
2021/04/12 13:01:52;;;;;;;5.30;2.30;;;;;;;;;;5101863;28;20369;-75
2021/04/12 13:07:22;;;;;;;8.38;3.20;;;;;;;;;;5105629;28;20077;-79
2021/04/12 13:10:02;;;;;;;13.88;4.45;;;;;;;;;;5112147;28;20031;-78
2021/04/12 13:12:29;;;;;;;5.82;2.92;;;;;;;;;;5114840;28;20161;-77
2021/04/12 13:15:08;;;;;;;6.03;2.30;;;;;;;;;;5115102;28;20508;-76
2021/04/12 13:30:18;;;;;;;6.57;2.97;;;;;;;;;;5108950;28;20098;-76
2021/04/12 13:32:58;;;;;;;7.72;2.50;;;;;;;;;;5111750;28;20027;-78
2021/04/12 13:35:26;;;;;;;8.43;2.47;;;;;;;;;;5115053;28;20020;-78
2021/04/12 13:38:03;;;;;;;8.93;2.67;;;;;;;;;;5115100;28;20028;-75
2021/04/12 13:40:40;;;;;;;4.50;2.25;;;;;;;;;;5114732;28;20400;-75
2021/04/12 13:43:07;;;;;;;9.75;3.08;;;;;;;;;;5114251;28;20044;-76
2021/04/12 13:45:35;;;;;;;10.40;3.03;;;;;;;;;;5114557;28;20015;-75
2021/04/12 13:48:09;;;;;;;10.32;3.28;;;;;;;;;;5114110;28;20049;-74
2021/04/12 13:50:36;;;;;;;;;;;;;;;;;;5111565;28;20534;-79
2021/04/12 13:53:05;;;;;;;10.13;3.95;;;;;;;;;;5115644;28;19904;-75
2021/04/12 13:55:51;;;;;;;9.85;4.93;;;;;;;;;;5114849;28;20023;-78
2021/04/12 13:58:24;;;;;;;9.57;4.35;;;;;;;;;;5108179;28;20041;-75
2021/04/12 14:01:08;;;;;;;8.82;4.00;;;;;;;;;;5114890;28;20023;-78
2021/04/12 14:06:33;;;;;;;6.25;2.55;;;;;;;;;;5115173;28;20104;-79
2021/04/12 14:09:10;;;;;;;9.25;3.00;;;;;;;;;;5110452;28;20023;-79
2021/04/12 14:11:42;;;;;;;12.32;3.78;;;;;;;;;;5094113;28;20051;-79
2021/04/12 14:14:27;;;;;;;8.10;3.80;;;;;;;;;;5094505;28;20051;-79
2021/04/12 14:17:02;;;;;;;12.25;3.83;;;;;;;;;;5094819;28;20024;-78
2021/04/12 14:19:34;;;;;;;22.30;4.25;;;;;;;;;;5094334;28;20051;-78
2021/04/12 14:22:14;;;;;;;20.23;4.18;;;;;;;;;;5102022;28;20076;-79
2021/04/12 14:24:45;;;;;;;10.77;4.00;;;;;;;;;;5103580;28;20138;-79
2021/04/12 14:27:11;;;;;;;10.88;4.88;;;;;;;;;;5105540;28;20126;-78
2021/04/12 14:29:55;;;;;;;11.65;3.70;;;;;;;;;;5102862;28;20051;-79
2021/04/12 14:32:23;;;;;;;17.25;3.55;;;;;;;;;;5103995;28;20785;-78
2021/04/12 14:35:02;;;;;;;11.13;5.13;;;;;;;;;;5105290;28;20049;-78
2021/04/12 14:37:32;;;;;;;7.63;3.78;;;;;;;;;;5104155;28;20059;-79
2021/04/12 14:40:14;;;;;;;9.80;2.53;;;;;;;;;;5104123;28;20375;-78
2021/04/12 14:42:48;;;;;;;9.23;2.10;;;;;;;;;;5104715;28;20040;-79
2021/04/12 14:45:19;;;;;;;10.10;2.63;;;;;;;;;;5104206;28;20690;-79
2021/04/12 14:47:49;;;;;;;11.73;2.80;;;;;;;;;;5103158;28;20027;-78
2021/04/12 14:50:26;;;;;;;8.52;2.08;;;;;;;;;;5105874;28;20028;-78
2021/04/12 14:52:56;;;;;;;10.32;2.67;;;;;;;;;;5103826;28;20055;-78
2021/04/12 14:55:28;;;;;;;7.20;2.20;;;;;;;;;;5102552;28;20051;-77
2021/04/12 14:57:55;;;;;;;13.30;3.78;;;;;;;;;;5103760;28;20061;-78
2021/04/12 15:00:39;;;;;;;12.45;2.83;;;;;;;;;;5103650;28;20051;-79
2021/04/12 15:03:05;;;;;;;;;;;;;;;;;;5105904;28;20031;-78
2021/04/12 15:05:37;;;;;;;10.98;3.88;;;;;;;;;;5106262;28;20339;-79
2021/04/12 15:08:09;;;;;;;5.90;3.00;;;;;;;;;;5104825;28;20034;-77
2021/04/12 15:10:37;;;;;;;10.30;3.08;;;;;;;;;;5105293;28;20031;-78
2021/04/12 15:13:05;;;;;;;15.98;4.72;;;;;;;;;;5106345;28;20107;-78
2021/04/12 15:15:36;;;;;;;13.75;4.68;;;;;;;;;;5104019;28;20616;-78
2021/04/12 15:18:24;;;;;;;14.63;5.25;;;;;;;;;;5105737;28;20106;-78
2021/04/12 15:21:09;;;;;;;17.52;5.60;;;;;;;;;;5103670;28;20027;-79
2021/04/12 15:23:39;;;;;;;11.35;4.35;;;;;;;;;;5103477;28;20156;-78
2021/04/12 15:26:08;;;;;;;12.57;4.72;;;;;;;;;;5107571;28;20557;-78
2021/04/12 15:28:36;;;;;;;11.73;4.28;;;;;;;;;;5105150;28;20031;-79
2021/04/12 15:31:05;;;;;;;11.23;4.13;;;;;;;;;;5104860;28;20024;-78
2021/04/12 15:33:38;;;;;;;11.02;4.13;;;;;;;;;;5104281;28;20362;-79
2021/04/12 15:36:17;;;;;;;11.32;4.22;;;;;;;;;;5105543;28;20111;-79
2021/04/12 15:38:45;;;;;;;8.75;3.13;;;;;;;;;;5106027;28;20057;-80
2021/04/12 15:41:20;;;;;;;10.43;3.60;;;;;;;;;;5101865;28;20032;-80
2021/04/12 15:43:47;;;;;;;10.27;3.25;;;;;;;;;;5102770;28;20035;-78
2021/04/12 15:46:27;;;;;;;10.77;3.60;;;;;;;;;;5111311;28;20020;-80
2021/04/12 15:49:04;;;;;;;10.68;3.15;;;;;;;;;;5113219;28;20042;-78
2021/04/12 15:51:33;;;;;;;11.38;3.50;;;;;;;;;;5113817;28;20055;-77
2021/04/12 15:54:06;;;;;;;10.52;4.18;;;;;;;;;;5117402;28;20134;-79
2021/04/12 15:56:50;;;;;;;9.45;3.38;;;;;;;;;;5116726;27;20031;-79
2021/04/12 15:59:28;;;;;;;13.05;2.92;;;;;;;;;;5117863;28;20080;-78
2021/04/12 16:01:57;;;;;;;8.70;2.63;;;;;;;;;;5117711;28;20040;-78
2021/04/12 16:04:42;;;;;;;16.92;5.00;;;;;;;;;;5117519;28;20067;-80
2021/04/12 16:07:10;;;;;;;10.88;2.90;;;;;;;;;;5108692;28;20024;-79
2021/04/12 16:09:39;;;;;;;11.80;3.53;;;;;;;;;;5102152;28;20042;-79
2021/04/12 16:12:10;;;;;;;8.77;2.95;;;;;;;;;;5108256;28;20494;-80
2021/04/12 16:14:36;;;;;;;14.43;3.55;;;;;;;;;;5109507;28;20042;-80
2021/04/12 16:17:10;;;;;;;17.95;2.80;;;;;;;;;;5108158;28;20534;-80
2021/04/12 16:19:46;;;;;;;12.18;2.88;;;;;;;;;;5106710;28;20490;-80
2021/04/12 16:22:12;;;;;;;12.05;3.00;;;;;;;;;;5108418;28;20032;-79
2021/04/12 16:24:41;;;;;;;12.15;3.47;;;;;;;;;;5107965;28;20031;-81
2021/04/12 16:27:26;;;;;;;8.85;2.38;;;;;;;;;;5107625;28;20607;-80
2021/04/12 16:30:05;;;;;;;12.77;3.17;;;;;;;;;;5104029;28;20069;-79
2021/04/12 16:32:49;;;;;;;18.58;3.97;;;;;;;;;;5106226;28;20536;-77
2021/04/12 16:35:24;;;;;;;9.27;3.47;;;;;;;;;;5108123;28;20050;-80
2021/04/12 16:38:16;;;;;;;9.15;3.78;;;;;;;;;;5107026;28;20027;-79
2021/04/12 16:40:59;;;;;;;9.25;3.63;;;;;;;;;;5111494;28;20051;-79
2021/04/12 16:43:28;;;;;;;10.50;3.30;;;;;;;;;;5107054;28;20214;-81
2021/04/12 16:46:06;;;;;;;11.32;3.13;;;;;;;;;;5106159;28;20103;-77
2021/04/12 16:48:42;;;;;;;38.88;5.30;;;;;;;;;;5107584;28;20073;-78
2021/04/12 16:51:08;;;;;;;16.42;3.38;;;;;;;;;;5097835;28;20102;-77
2021/04/12 16:53:38;;;;;;;23.40;3.97;;;;;;;;;;5116465;28;20106;-77
2021/04/12 16:56:13;;;;;;;21.05;4.10;;;;;;;;;;5116540;28;20031;-77
2021/04/12 16:58:44;;;;;;;9.85;3.67;;;;;;;;;;5110322;28;20027;-77
2021/04/12 17:01:18;;;;;;;11.10;4.85;;;;;;;;;;5105081;28;20465;-78
2021/04/12 17:03:53;;;;;;;10.60;2.75;;;;;;;;;;5107085;28;20066;-77
2021/04/12 17:06:24;;;;;;;9.13;2.83;;;;;;;;;;5114213;28;20028;-82
2021/04/12 17:08:58;;;;;;;6.93;2.78;;;;;;;;;;5116449;28;20038;-80
2021/04/12 17:11:27;;;;;;;12.32;5.25;;;;;;;;;;5115876;28;20094;-80
2021/04/12 17:14:12;;;;;;;10.85;5.20;;;;;;;;;;5104767;28;20024;-77
2021/04/12 17:16:44;;;;;;;13.77;5.22;;;;;;;;;;5113365;28;20077;-81
2021/04/12 17:19:13;;;;;;;8.57;4.20;;;;;;;;;;5096244;28;20467;-77
2021/04/12 17:21:44;;;;;;;8.18;3.97;;;;;;;;;;5113883;28;20110;-77
2021/04/12 17:24:13;;;;;;;8.75;5.05;;;;;;;;;;5104464;28;20035;-78
2021/04/12 17:26:39;;;;;;;8.20;4.65;;;;;;;;;;5099704;28;20036;-78
2021/04/12 17:29:08;;;;;;;7.80;4.80;;;;;;;;;;5109749;28;20059;-77
2021/04/12 17:31:36;;;;;;;13.23;9.73;;;;;;;;;;5115794;28;20385;-78
2021/04/12 17:34:07;;;;;;;12.02;7.90;;;;;;;;;;5116181;28;20030;-77
2021/04/12 17:36:33;;;;;;;16.80;10.45;;;;;;;;;;5115834;28;20035;-77
2021/04/12 17:39:08;;;;;;;17.90;8.95;;;;;;;;;;5110160;28;20114;-77
2021/04/12 17:41:54;;;;;;;10.80;4.68;;;;;;;;;;5105978;28;20035;-78
2021/04/12 17:44:20;;;;;;;8.13;3.38;;;;;;;;;;5099668;28;20072;-78
2021/04/12 17:46:53;;;;;;;8.73;3.33;;;;;;;;;;5113560;28;20020;-78
2021/04/12 17:49:23;;;;;;;10.10;3.35;;;;;;;;;;5114944;28;20020;-76
2021/04/12 17:51:57;;;;;;;14.00;3.55;;;;;;;;;;5114490;28;20028;-77
2021/04/12 17:54:26;;;;;;;11.75;4.35;;;;;;;;;;5097542;28;20028;-77
2021/04/12 17:56:53;;;;;;;13.13;5.10;;;;;;;;;;5092727;28;20078;-78
2021/04/12 17:59:27;;;;;;;7.05;3.13;;;;;;;;;;5094218;28;20407;-78
2021/04/12 18:01:53;;;;;;;;;;;;;;;;;;5094222;28;20028;-77
2021/04/12 18:04:22;;;;;;;7.35;2.50;;;;;;;;;;5093935;28;19908;-77
2021/04/12 18:06:50;;;;;;;6.45;3.60;;;;;;;;;;5093763;28;20016;-79
2021/04/12 18:09:35;;;;;;;9.18;4.68;;;;;;;;;;5094082;28;20032;-78
2021/04/12 18:12:01;;;;;;;;;;;;;;;;;;5094646;28;20025;-79
2021/04/12 18:14:43;;;;;;;22.30;14.48;;;;;;;;;;5093296;28;19910;-78
2021/04/12 18:17:35;;;;;;;23.17;17.67;;;;;;;;;;5093750;28;20028;-78
2021/04/12 18:20:08;;;;;;;15.13;9.07;;;;;;;;;;5078006;28;20119;-78
2021/04/12 18:22:36;;;;;;;9.38;6.25;;;;;;;;;;5093938;28;20028;-77
2021/04/12 18:25:05;;;;;;;5.45;3.42;;;;;;;;;;5093601;28;20024;-78
2021/04/12 18:27:37;;;;;;;9.98;4.35;;;;;;;;;;5093779;28;20024;-78
2021/04/12 18:30:13;;;;;;;7.75;4.30;;;;;;;;;;5093384;28;20044;-79
2021/04/12 18:32:52;;;;;;;6.95;3.88;;;;;;;;;;5093053;28;20090;-77
2021/04/12 18:35:24;;;;;;;5.88;3.10;;;;;;;;;;5093529;28;20031;-77
2021/04/12 18:37:56;;;;;;;5.47;3.75;;;;;;;;;;5093466;28;20028;-79
2021/04/12 18:40:22;;;;;;;9.23;3.45;;;;;;;;;;5093044;28;20028;-79
2021/04/12 18:42:49;;;;;;;6.03;3.15;;;;;;;;;;5093361;28;20046;-76
2021/04/12 18:45:25;;;;;;;5.75;2.53;;;;;;;;;;5093203;28;20034;-77
2021/04/12 18:47:56;;;;;;;4.75;2.80;;;;;;;;;;5093341;28;20050;-76
2021/04/12 18:50:24;;;;;;;4.88;3.05;;;;;;;;;;5092917;28;20059;-76
2021/04/12 18:52:56;;;;;;;6.57;3.00;;;;;;;;;;5093231;28;20031;-76
2021/04/12 18:55:42;;;;;;;6.28;2.78;;;;;;;;;;5092872;28;20028;-77
2021/04/12 18:58:27;;;;;;;3.90;2.63;;;;;;;;;;5093047;28;20103;-77
2021/04/12 19:00:53;;;;;;;5.97;3.53;;;;;;;;;;5092749;28;20027;-78
2021/04/12 19:03:25;;;;;;;6.43;3.75;;;;;;;;;;5092868;28;20035;-77
2021/04/12 19:06:09;;;;;;;13.65;8.93;;;;;;;;;;5092819;28;20040;-77
2021/04/12 19:08:51;;;;;;;6.85;4.82;;;;;;;;;;5092780;28;20028;-76
2021/04/12 19:11:30;;;;;;;5.47;3.10;;;;;;;;;;5092245;28;20106;-77
2021/04/12 19:14:04;;;;;;;8.23;4.05;;;;;;;;;;5092500;28;20161;-77
2021/04/12 19:16:48;;;;;;;8.38;3.90;;;;;;;;;;5092522;28;20095;-77
2021/04/12 19:19:33;;;;;;;7.47;4.63;;;;;;;;;;5092648;28;20027;-76
2021/04/12 19:22:06;;;;;;;3.75;2.50;;;;;;;;;;5092521;28;20024;-77
2021/04/12 19:24:51;;;;;;;3.85;2.60;;;;;;;;;;5092291;28;20071;-77
2021/04/12 19:27:20;;;;;;;5.22;3.15;;;;;;;;;;5091482;28;20073;-77
2021/04/12 19:30:05;;;;;;;4.72;2.90;;;;;;;;;;5092217;28;20087;-77
2021/04/12 19:32:31;;;;;;;;;;;;;;;;;;5091605;28;20429;-77